EHVL  Vlieland Heliport

Add Bookmark

Vlieland, The Netherlands

Status
Operational
Latitude Longitude
53° 17' 47" N 5° 5' 8" E
53.296665 5.085833
Local (DST + 2) UTC (GMT + 1)
Jul 31, 2014 03:16 Jul 31, 2014 01:16
Sunrise-Sunset Local UTC
Begin Civil Twilight 05:09 03:09
Sunrise 05:53 03:53
Sunset 09:38 19:38
End Civil Twilight 10:22 20:22

Current Weather

METAR Observed VFR
EHVL 310055Z AUTO 25014KT 9999 NCD 17/14 Q1014 BLU Thu, Jul 31, 2014 @ 00:55 UTC
(21 Minutes ago)
Visual Flight Rules

Decoded METAR

Wind Visibility Clouds Conditions
250° at 14 knots (26 kph) 10 km or more
  • Clear skies
  • No significant weather
Temperatures Readings Precipitation
Current Temp 17°C (63°F)
Dewpoint 14°C (57°F)
Humidity 83%
Altimeter 29.94"Hg
Sea Level Pressure 1014mb
Field Elevation 16.4'
None Recorded

Additional weather within a 92.6km radius of EHVL

Map ICAO Location
EHLW 45.6km E (099°)
EHKD 46.1km S (206°)

24 Hour Weather History

Loading
-

24 Hour Weather Graphs

Loading
-

CheckWX.com is intended as a tool to help pilots better visualize weather data. It is not intended as a substitute for an official weather briefing obtained from a Flight Service Station. CheckWX.com does not meet the FAA requirements for an official pre-flight weather briefing. Therefore, it's important that pilots still call and obtain an official FSS pre-flight weather briefing.